createdAt,value
2023-02-25T00:00:28.628Z,3.71
2023-02-25T00:01:28.621Z,3.70
2023-02-25T00:02:28.660Z,3.73
2023-02-25T00:03:28.727Z,3.66
2023-02-25T00:04:28.667Z,3.64
2023-02-25T00:05:30.619Z,3.63
2023-02-25T00:06:28.672Z,3.63
2023-02-25T00:07:28.704Z,3.66
2023-02-25T00:08:28.688Z,3.70
2023-02-25T00:09:28.701Z,3.64
2023-02-25T00:10:28.708Z,3.59
2023-02-25T00:11:28.714Z,3.67
2023-02-25T00:12:28.722Z,3.61
2023-02-25T00:13:28.731Z,3.66
2023-02-25T00:14:28.752Z,3.66
2023-02-25T00:15:28.745Z,3.64
2023-02-25T00:16:28.836Z,3.63
2023-02-25T00:17:28.766Z,3.63
2023-02-25T00:18:28.784Z,3.52
2023-02-25T00:19:28.783Z,3.67
2023-02-25T00:20:28.797Z,3.58
2023-02-25T00:21:28.813Z,3.64
2023-02-25T00:22:28.819Z,3.52
2023-02-25T00:23:28.835Z,3.50
2023-02-25T00:24:28.841Z,3.52
2023-02-25T00:25:28.839Z,3.68
2023-02-25T00:26:28.853Z,3.66
2023-02-25T00:27:28.875Z,3.61
2023-02-25T00:28:28.874Z,3.64
2023-02-25T00:29:28.894Z,3.66
2023-02-25T00:30:28.888Z,3.58
2023-02-25T00:31:29.042Z,3.67
2023-02-25T00:32:29.086Z,3.64
2023-02-25T00:33:28.917Z,3.55
2023-02-25T00:34:28.926Z,3.59
2023-02-25T00:35:28.934Z,3.61
2023-02-25T00:36:28.946Z,3.45
2023-02-25T00:37:28.950Z,3.36
2023-02-25T00:38:28.959Z,3.16
2023-02-25T00:39:29.005Z,3.11
2023-02-25T00:40:28.983Z,3.06
2023-02-25T00:41:29.005Z,3.01
2023-02-25T00:42:28.994Z,2.97
2023-02-25T00:43:29.003Z,2.83
2023-02-25T00:44:29.012Z,2.87
2023-02-25T00:45:29.019Z,2.70
2023-02-25T00:46:29.056Z,2.73
2023-02-25T00:47:29.035Z,2.62
2023-02-25T00:48:29.045Z,2.64
2023-02-25T00:49:32.463Z,2.57
2023-02-25T00:50:29.062Z,2.65
2023-02-25T00:51:29.072Z,2.47
2023-02-25T00:52:29.087Z,2.55
2023-02-25T00:53:29.088Z,2.50
2023-02-25T00:54:29.099Z,2.44
2023-02-25T00:55:29.106Z,2.54
2023-02-25T00:56:29.122Z,2.47
2023-02-25T00:57:29.124Z,2.50
2023-02-25T00:58:29.132Z,2.43
2023-02-25T00:59:29.142Z,2.46
2023-02-25T01:00:29.159Z,2.50
2023-02-25T01:01:29.169Z,2.47
2023-02-25T01:02:29.256Z,2.46
2023-02-25T01:03:29.167Z,2.50
2023-02-25T01:04:29.180Z,2.51
2023-02-25T01:05:29.186Z,2.47
2023-02-25T01:06:29.198Z,2.55
2023-02-25T01:07:29.200Z,2.47
2023-02-25T01:08:29.206Z,2.55
2023-02-25T01:09:29.218Z,2.58
2023-02-25T01:10:29.235Z,2.50
2023-02-25T01:11:29.411Z,2.46
2023-02-25T01:12:29.239Z,2.52
2023-02-25T01:13:29.246Z,2.54
2023-02-25T01:14:29.256Z,2.58
2023-02-25T01:15:29.269Z,2.57
2023-02-25T01:16:29.348Z,2.54
2023-02-25T01:17:29.280Z,2.62
2023-02-25T01:18:29.289Z,2.52
2023-02-25T01:19:29.296Z,2.61
2023-02-25T01:20:29.310Z,2.65
2023-02-25T01:21:29.318Z,2.59
2023-02-25T01:22:29.331Z,2.65
2023-02-25T01:23:29.330Z,2.64
2023-02-25T01:24:29.347Z,2.65
2023-02-25T01:25:29.349Z,2.61
2023-02-25T01:26:29.366Z,2.59
2023-02-25T01:27:29.386Z,2.64
2023-02-25T01:28:29.369Z,2.72
2023-02-25T01:29:29.379Z,2.73
2023-02-25T01:30:29.387Z,2.69
2023-02-25T01:31:29.599Z,2.70
2023-02-25T01:32:29.599Z,2.73
2023-02-25T01:33:29.415Z,2.73
2023-02-25T01:34:29.423Z,2.75
2023-02-25T01:35:29.430Z,2.75
2023-02-25T01:36:29.446Z,2.70
2023-02-25T01:37:29.448Z,2.75
2023-02-25T01:38:29.460Z,2.75
2023-02-25T01:39:29.462Z,2.75
2023-02-25T01:40:29.475Z,2.83
2023-02-25T01:41:29.481Z,2.80
2023-02-25T01:42:29.491Z,2.87
2023-02-25T01:43:29.498Z,2.83
2023-02-25T01:44:29.512Z,2.82
2023-02-25T01:45:29.518Z,2.83
2023-02-25T01:46:29.531Z,2.91
2023-02-25T01:47:29.535Z,2.94
2023-02-25T01:48:29.542Z,2.94
2023-02-25T01:49:29.551Z,2.93
2023-02-25T01:50:29.559Z,2.95
2023-02-25T01:51:29.566Z,3.00
2023-02-25T01:52:29.578Z,3.01
2023-02-25T01:53:29.585Z,2.94
2023-02-25T01:54:29.594Z,2.93
2023-02-25T01:55:29.601Z,2.93
2023-02-25T01:56:29.618Z,3.01
2023-02-25T01:57:29.630Z,3.01
2023-02-25T01:58:29.633Z,2.95
2023-02-25T01:59:29.641Z,3.05
2023-02-25T02:00:29.699Z,3.03
2023-02-25T02:01:29.657Z,2.97
2023-02-25T02:02:29.738Z,2.91
2023-02-25T02:03:29.671Z,2.94
2023-02-25T02:04:29.696Z,2.87
2023-02-25T02:05:29.751Z,2.93
2023-02-25T02:06:29.700Z,3.00
2023-02-25T02:07:29.737Z,3.01
2023-02-25T02:08:29.715Z,3.01
2023-02-25T02:09:29.721Z,3.00
2023-02-25T02:10:29.767Z,3.05
2023-02-25T02:11:29.746Z,3.03
2023-02-25T02:12:29.748Z,2.95
2023-02-25T02:13:29.759Z,3.08
2023-02-25T02:14:29.767Z,3.00
2023-02-25T02:15:29.773Z,2.98
2023-02-25T02:16:29.820Z,2.97
2023-02-25T02:17:30.369Z,2.95
2023-02-25T02:18:29.812Z,2.94
2023-02-25T02:19:29.808Z,2.98
2023-02-25T02:20:29.873Z,2.98
2023-02-25T02:21:29.822Z,2.98
2023-02-25T02:22:29.835Z,3.03
2023-02-25T02:23:29.841Z,2.97
2023-02-25T02:24:29.853Z,2.90
2023-02-25T02:25:29.857Z,3.01
2023-02-25T02:26:29.867Z,3.05
2023-02-25T02:27:29.875Z,2.95
2023-02-25T02:28:29.884Z,3.01
2023-02-25T02:29:29.913Z,2.97
2023-02-25T02:30:29.906Z,2.93
2023-02-25T02:31:29.968Z,3.01
2023-02-25T02:32:29.943Z,2.98
2023-02-25T02:33:29.926Z,2.90
2023-02-25T02:34:29.944Z,2.83
2023-02-25T02:35:29.942Z,2.93
2023-02-25T02:36:29.953Z,3.06
2023-02-25T02:37:29.963Z,2.88
2023-02-25T02:38:29.968Z,2.90
2023-02-25T02:39:29.981Z,3.03
2023-02-25T02:40:30.025Z,2.87
2023-02-25T02:41:29.995Z,2.91
2023-02-25T02:42:30.003Z,2.94
2023-02-25T02:43:30.010Z,2.93
2023-02-25T02:44:30.020Z,3.03
2023-02-25T02:45:30.076Z,2.98
2023-02-25T02:46:30.033Z,2.94
2023-02-25T02:47:30.050Z,2.98
2023-02-25T02:48:30.055Z,2.91
2023-02-25T02:49:30.061Z,3.01
2023-02-25T02:50:30.067Z,2.91
2023-02-25T02:51:30.077Z,2.94
2023-02-25T02:52:30.082Z,2.82
2023-02-25T02:53:30.092Z,2.91
2023-02-25T02:54:30.106Z,3.03
2023-02-25T02:55:30.113Z,2.94
2023-02-25T02:56:30.117Z,2.88
2023-02-25T02:57:30.125Z,3.01
2023-02-25T02:58:30.134Z,2.88
2023-02-25T02:59:30.175Z,2.95
2023-02-25T03:00:30.160Z,2.94
2023-02-25T03:01:30.207Z,2.94
2023-02-25T03:02:30.182Z,2.90
2023-02-25T03:03:30.175Z,2.93
2023-02-25T03:04:30.184Z,3.03
2023-02-25T03:05:30.192Z,3.06
2023-02-25T03:06:30.221Z,3.01
2023-02-25T03:07:30.209Z,3.00
2023-02-25T03:08:30.214Z,3.03
2023-02-25T03:09:30.229Z,2.97
2023-02-25T03:10:30.236Z,3.03
2023-02-25T03:11:30.241Z,2.98
2023-02-25T03:12:30.266Z,3.06
2023-02-25T03:13:30.264Z,2.94
2023-02-25T03:14:30.270Z,2.98
2023-02-25T03:15:30.279Z,2.94
2023-02-25T03:16:30.302Z,2.91
2023-02-25T03:17:30.294Z,2.91
2023-02-25T03:18:30.305Z,2.91
2023-02-25T03:19:30.312Z,2.93
2023-02-25T03:20:30.320Z,2.85
2023-02-25T03:21:30.331Z,2.85
2023-02-25T03:22:30.342Z,2.82
2023-02-25T03:23:30.353Z,2.85
2023-02-25T03:24:30.374Z,2.85
2023-02-25T03:25:30.370Z,2.88
2023-02-25T03:26:30.381Z,2.88
2023-02-25T03:27:30.387Z,2.94
2023-02-25T03:28:30.396Z,2.80
2023-02-25T03:29:30.414Z,2.87
2023-02-25T03:30:30.480Z,2.83
2023-02-25T03:31:30.450Z,2.83
2023-02-25T03:32:30.502Z,2.87
2023-02-25T03:33:30.436Z,2.85
2023-02-25T03:34:30.459Z,2.85
2023-02-25T03:35:30.455Z,2.85
2023-02-25T03:36:30.465Z,2.87
2023-02-25T03:37:30.473Z,2.82
2023-02-25T03:38:30.481Z,2.83
2023-02-25T03:39:30.490Z,2.83
2023-02-25T03:40:30.498Z,2.82
2023-02-25T03:41:30.512Z,2.77
2023-02-25T03:42:30.522Z,2.70
2023-02-25T03:43:30.522Z,2.80
2023-02-25T03:44:30.539Z,2.72
2023-02-25T03:45:30.541Z,2.73
2023-02-25T03:46:30.652Z,2.72
2023-02-25T03:47:30.555Z,2.70
2023-02-25T03:48:30.565Z,2.75
2023-02-25T03:49:30.604Z,2.75
2023-02-25T03:50:30.585Z,2.73
2023-02-25T03:51:30.590Z,2.73
2023-02-25T03:52:30.599Z,2.73
2023-02-25T03:53:31.323Z,2.75
2023-02-25T03:54:30.615Z,2.75
2023-02-25T03:55:30.626Z,2.72
2023-02-25T03:56:30.627Z,2.68
2023-02-25T03:57:30.639Z,2.73
2023-02-25T03:58:30.647Z,2.68
2023-02-25T03:59:30.656Z,2.72
2023-02-25T04:00:30.703Z,2.77
2023-02-25T04:01:30.686Z,2.68
2023-02-25T04:02:30.743Z,2.73
2023-02-25T04:03:30.687Z,2.73
2023-02-25T04:04:30.701Z,2.72
2023-02-25T04:05:30.706Z,2.70
2023-02-25T04:06:30.721Z,2.70
2023-02-25T04:07:30.723Z,2.70
2023-02-25T04:08:30.727Z,2.68
2023-02-25T04:09:30.738Z,2.69
2023-02-25T04:10:30.741Z,2.69
2023-02-25T04:11:30.753Z,2.59
2023-02-25T04:12:30.757Z,2.59
2023-02-25T04:13:30.767Z,2.65
2023-02-25T04:14:30.774Z,2.62
2023-02-25T04:15:30.812Z,2.64
2023-02-25T04:16:30.789Z,2.65
2023-02-25T04:17:30.799Z,2.64
2023-02-25T04:18:30.833Z,2.64
2023-02-25T04:19:30.819Z,2.64
2023-02-25T04:20:30.822Z,2.54
2023-02-25T04:21:30.835Z,2.61
2023-02-25T04:22:30.843Z,2.52
2023-02-25T04:23:30.857Z,2.62
2023-02-25T04:24:30.856Z,2.52
2023-02-25T04:25:30.866Z,2.58
2023-02-25T04:26:30.883Z,2.46
2023-02-25T04:27:30.881Z,2.51
2023-02-25T04:28:30.897Z,2.50
2023-02-25T04:29:30.915Z,2.51
2023-02-25T04:30:32.288Z,2.46
2023-02-25T04:31:31.068Z,2.57
2023-02-25T04:32:31.074Z,2.46
2023-02-25T04:33:30.930Z,2.44
2023-02-25T04:34:30.943Z,2.44
2023-02-25T04:35:30.945Z,2.52
2023-02-25T04:36:31.006Z,2.50
2023-02-25T04:37:30.967Z,2.54
2023-02-25T04:38:30.974Z,2.50
2023-02-25T04:39:30.981Z,2.44
2023-02-25T04:40:30.993Z,2.47
2023-02-25T04:41:30.993Z,2.51
2023-02-25T04:42:31.005Z,2.47
2023-02-25T04:43:31.011Z,2.51
2023-02-25T04:44:31.049Z,2.55
2023-02-25T04:45:31.027Z,2.52
2023-02-25T04:46:31.069Z,2.37
2023-02-25T04:47:31.042Z,2.52
2023-02-25T04:48:31.071Z,2.40
2023-02-25T04:49:31.063Z,2.40
2023-02-25T04:50:31.069Z,2.39
2023-02-25T04:51:31.079Z,2.44
2023-02-25T04:52:31.092Z,2.39
2023-02-25T04:53:31.096Z,2.40
2023-02-25T04:54:31.101Z,2.30
2023-02-25T04:55:31.106Z,2.41
2023-02-25T04:56:31.118Z,2.37
2023-02-25T04:57:31.124Z,2.39
2023-02-25T04:58:31.133Z,2.41
2023-02-25T04:59:31.141Z,2.37
2023-02-25T05:00:31.148Z,2.41
2023-02-25T05:01:31.169Z,2.37
2023-02-25T05:02:31.168Z,2.39
2023-02-25T05:03:31.182Z,2.39
2023-02-25T05:04:31.248Z,2.44
2023-02-25T05:05:31.190Z,2.40
2023-02-25T05:06:31.199Z,2.37
2023-02-25T05:07:31.212Z,2.37
2023-02-25T05:08:31.214Z,2.33
2023-02-25T05:09:31.228Z,2.36
2023-02-25T05:10:31.232Z,2.36
2023-02-25T05:11:31.240Z,2.37
2023-02-25T05:12:31.249Z,2.34
2023-02-25T05:13:31.255Z,2.40
2023-02-25T05:14:32.963Z,2.44
2023-02-25T05:15:31.272Z,2.36
2023-02-25T05:16:31.348Z,2.34
2023-02-25T05:17:31.291Z,2.44
2023-02-25T05:18:31.305Z,2.39
2023-02-25T05:19:31.304Z,2.34
2023-02-25T05:20:31.378Z,2.43
2023-02-25T05:21:31.323Z,2.37
2023-02-25T05:22:31.330Z,2.30
2023-02-25T05:23:31.338Z,2.37
2023-02-25T05:24:31.344Z,2.39
2023-02-25T05:25:31.351Z,2.36
2023-02-25T05:26:31.360Z,2.30
2023-02-25T05:27:31.369Z,2.32
2023-02-25T05:28:31.377Z,2.40
2023-02-25T05:29:31.397Z,2.25
2023-02-25T05:30:31.406Z,2.32
2023-02-25T05:31:31.497Z,2.33
2023-02-25T05:32:31.508Z,2.32
2023-02-25T05:33:31.417Z,2.16
2023-02-25T05:34:31.427Z,2.30
2023-02-25T05:35:31.435Z,2.30
2023-02-25T05:36:31.574Z,2.22
2023-02-25T05:37:31.448Z,2.21
2023-02-25T05:38:31.457Z,2.22
2023-02-25T05:39:31.463Z,2.22
2023-02-25T05:40:31.474Z,2.19
2023-02-25T05:41:31.482Z,2.21
2023-02-25T05:42:31.498Z,2.19
2023-02-25T05:43:31.508Z,2.19
2023-02-25T05:44:31.504Z,2.25
2023-02-25T05:45:31.512Z,2.21
2023-02-25T05:46:31.550Z,2.12
2023-02-25T05:47:31.531Z,2.15
2023-02-25T05:48:31.536Z,2.12
2023-02-25T05:49:31.554Z,2.15
2023-02-25T05:50:31.553Z,2.15
2023-02-25T05:51:31.558Z,2.08
2023-02-25T05:52:31.570Z,2.12
2023-02-25T05:53:31.573Z,2.12
2023-02-25T05:54:31.602Z,2.15
2023-02-25T05:55:31.591Z,2.07
2023-02-25T05:56:32.369Z,2.15
2023-02-25T05:57:31.608Z,2.08
2023-02-25T05:58:31.619Z,2.08
2023-02-25T05:59:31.625Z,2.10
2023-02-25T06:00:31.632Z,2.10
2023-02-25T06:01:31.740Z,2.04
2023-02-25T06:02:31.644Z,2.07
2023-02-25T06:03:31.720Z,2.04
2023-02-25T06:04:31.660Z,2.01
2023-02-25T06:05:31.666Z,1.97
2023-02-25T06:06:31.691Z,2.08
2023-02-25T06:07:31.690Z,1.93
2023-02-25T06:08:31.700Z,1.95
2023-02-25T06:09:31.700Z,2.03
2023-02-25T06:10:31.705Z,1.92
2023-02-25T06:11:31.715Z,1.86
2023-02-25T06:12:31.724Z,1.89
2023-02-25T06:13:31.734Z,1.93
2023-02-25T06:14:31.741Z,1.92
2023-02-25T06:15:31.746Z,1.81
2023-02-25T06:16:31.913Z,1.82
2023-02-25T06:17:31.768Z,1.79
2023-02-25T06:18:31.765Z,1.84
2023-02-25T06:19:31.777Z,1.78
2023-02-25T06:20:31.779Z,1.78
2023-02-25T06:21:31.833Z,1.84
2023-02-25T06:22:31.803Z,1.78
2023-02-25T06:23:31.803Z,1.70
2023-02-25T06:24:31.822Z,1.74
2023-02-25T06:25:31.818Z,1.70
2023-02-25T06:26:31.826Z,1.76
2023-02-25T06:27:31.845Z,1.68
2023-02-25T06:28:31.846Z,1.78
2023-02-25T06:29:31.857Z,1.70
2023-02-25T06:30:31.915Z,1.76
2023-02-25T06:31:31.880Z,1.76
2023-02-25T06:32:32.000Z,1.66
2023-02-25T06:33:31.880Z,1.66
2023-02-25T06:34:31.888Z,1.71
2023-02-25T06:35:31.896Z,1.66
2023-02-25T06:36:31.902Z,1.71
2023-02-25T06:37:31.912Z,1.71
2023-02-25T06:38:31.921Z,1.66
2023-02-25T06:39:31.930Z,1.64
2023-02-25T06:40:31.944Z,1.64
2023-02-25T06:41:31.946Z,1.68
2023-02-25T06:42:31.948Z,1.61
2023-02-25T06:43:31.971Z,1.64
2023-02-25T06:44:31.964Z,1.66
2023-02-25T06:45:31.972Z,1.66
2023-02-25T06:46:32.041Z,1.66
2023-02-25T06:47:31.985Z,1.68
2023-02-25T06:48:32.006Z,1.66
2023-02-25T06:49:32.004Z,1.66
2023-02-25T06:50:32.009Z,1.64
2023-02-25T06:51:32.022Z,1.53
2023-02-25T06:52:32.036Z,1.66
2023-02-25T06:53:32.037Z,1.66
2023-02-25T06:54:32.041Z,1.64
2023-02-25T06:55:32.048Z,1.67
2023-02-25T06:56:32.060Z,1.64
2023-02-25T06:57:32.070Z,1.66
2023-02-25T06:58:32.074Z,1.70
2023-02-25T06:59:32.078Z,1.66
2023-02-25T07:00:32.085Z,1.71
2023-02-25T07:01:32.169Z,1.71
2023-02-25T07:02:32.101Z,1.75
2023-02-25T07:03:32.107Z,1.70
2023-02-25T07:04:32.189Z,1.74
2023-02-25T07:05:32.128Z,1.70
2023-02-25T07:06:32.136Z,1.75
2023-02-25T07:07:32.137Z,1.67
2023-02-25T07:08:32.153Z,1.74
2023-02-25T07:09:32.158Z,1.75
2023-02-25T07:10:32.162Z,1.79
2023-02-25T07:11:32.167Z,1.76
2023-02-25T07:12:32.174Z,1.84
2023-02-25T07:13:32.186Z,1.85
2023-02-25T07:14:32.196Z,1.85
2023-02-25T07:15:32.201Z,1.79
2023-02-25T07:16:32.208Z,1.95
2023-02-25T07:17:32.221Z,2.03
2023-02-25T07:18:32.225Z,2.03
2023-02-25T07:19:32.231Z,2.01
2023-02-25T07:20:32.245Z,1.88
2023-02-25T07:21:32.254Z,1.98
2023-02-25T07:22:32.253Z,2.07
2023-02-25T07:23:32.264Z,2.03
2023-02-25T07:24:32.276Z,2.05
2023-02-25T07:25:32.365Z,2.03
2023-02-25T07:26:32.284Z,2.03
2023-02-25T07:27:32.294Z,2.12
2023-02-25T07:28:32.304Z,2.12
2023-02-25T07:29:32.308Z,2.12
2023-02-25T07:30:32.320Z,2.12
2023-02-25T07:31:32.438Z,2.15
2023-02-25T07:32:32.455Z,2.08
2023-02-25T07:33:32.341Z,2.15
2023-02-25T07:34:32.353Z,2.18
2023-02-25T07:35:32.359Z,2.21
2023-02-25T07:36:32.376Z,2.25
2023-02-25T07:37:32.378Z,2.21
2023-02-25T07:38:32.387Z,2.18
2023-02-25T07:39:32.398Z,2.18
2023-02-25T07:40:32.401Z,2.12
2023-02-25T07:41:32.409Z,2.07
2023-02-25T07:42:32.417Z,2.12
2023-02-25T07:43:32.421Z,2.16
2023-02-25T07:44:32.436Z,2.21
2023-02-25T07:45:32.443Z,2.08
2023-02-25T07:46:32.507Z,2.07
2023-02-25T07:47:32.462Z,2.19
2023-02-25T07:48:32.472Z,2.07
2023-02-25T07:49:32.478Z,2.05
2023-02-25T07:50:32.484Z,2.07
2023-02-25T07:51:32.506Z,2.04
2023-02-25T07:52:32.505Z,2.08
2023-02-25T07:53:32.529Z,2.05
2023-02-25T07:54:32.529Z,2.14
2023-02-25T07:55:32.542Z,2.12
2023-02-25T07:56:32.560Z,2.15
2023-02-25T07:57:32.554Z,2.18
2023-02-25T07:58:32.550Z,2.15
2023-02-25T07:59:32.573Z,2.12
2023-02-25T08:00:32.582Z,2.08
2023-02-25T08:01:32.587Z,2.10
2023-02-25T08:02:32.635Z,2.07
2023-02-25T08:03:32.594Z,2.14
2023-02-25T08:04:32.670Z,2.05
2023-02-25T08:05:32.609Z,2.15
2023-02-25T08:06:32.620Z,2.10
2023-02-25T08:07:32.624Z,2.19
2023-02-25T08:08:32.634Z,2.21
2023-02-25T08:09:32.640Z,2.18
2023-02-25T08:10:32.646Z,2.23
2023-02-25T08:11:32.655Z,2.28
2023-02-25T08:12:32.673Z,2.23
2023-02-25T08:13:32.675Z,2.19
2023-02-25T08:14:32.690Z,2.19
2023-02-25T08:15:32.710Z,2.21
2023-02-25T08:16:32.704Z,2.21
2023-02-25T08:17:32.724Z,2.12
2023-02-25T08:18:32.746Z,2.21
2023-02-25T08:19:32.735Z,2.10
2023-02-25T08:20:32.738Z,2.21
2023-02-25T08:21:32.745Z,2.07
2023-02-25T08:22:32.762Z,2.25
2023-02-25T08:23:32.765Z,2.21
2023-02-25T08:24:32.772Z,2.23
2023-02-25T08:25:32.773Z,2.28
2023-02-25T08:26:32.787Z,2.18
2023-02-25T08:27:32.790Z,2.25
2023-02-25T08:28:34.952Z,2.19
2023-02-25T08:29:32.810Z,2.18
2023-02-25T08:30:32.828Z,2.21
2023-02-25T08:31:32.910Z,2.25
2023-02-25T08:32:32.909Z,2.25
2023-02-25T08:33:32.842Z,2.14
2023-02-25T08:34:32.852Z,2.28
2023-02-25T08:35:32.871Z,2.21
2023-02-25T08:36:32.871Z,2.19
2023-02-25T08:37:32.872Z,2.10
2023-02-25T08:38:32.882Z,2.21
2023-02-25T08:39:32.893Z,2.12
2023-02-25T08:40:32.900Z,2.10
2023-02-25T08:41:32.913Z,2.22
2023-02-25T08:42:32.923Z,2.14
2023-02-25T08:43:32.929Z,2.22
2023-02-25T08:44:32.933Z,2.08
2023-02-25T08:45:32.939Z,2.16
2023-02-25T08:46:33.019Z,2.22
2023-02-25T08:47:32.980Z,2.12
2023-02-25T08:48:32.970Z,2.19
2023-02-25T08:49:32.977Z,2.16
2023-02-25T08:50:32.983Z,2.19
2023-02-25T08:51:32.989Z,2.25
2023-02-25T08:52:32.999Z,2.21
2023-02-25T08:53:33.007Z,2.19
2023-02-25T08:54:33.015Z,2.21
2023-02-25T08:55:33.042Z,2.19
2023-02-25T08:56:33.031Z,2.22
2023-02-25T08:57:33.054Z,2.22
2023-02-25T08:58:33.050Z,2.19
2023-02-25T08:59:33.057Z,2.14
2023-02-25T09:00:33.088Z,2.19
2023-02-25T09:01:33.072Z,2.21
2023-02-25T09:02:33.089Z,2.23
2023-02-25T09:03:33.092Z,2.23
2023-02-25T09:04:33.135Z,2.16
2023-02-25T09:05:33.105Z,2.16
2023-02-25T09:06:33.121Z,2.14
2023-02-25T09:07:33.122Z,2.19
2023-02-25T09:08:33.133Z,2.21
2023-02-25T09:09:33.140Z,2.22
2023-02-25T09:10:48.136Z,2.25
2023-02-25T09:11:33.159Z,2.21
2023-02-25T09:12:33.166Z,2.26
2023-02-25T09:13:33.181Z,2.36
2023-02-25T09:14:33.183Z,2.28
2023-02-25T09:15:33.192Z,2.25
2023-02-25T09:16:33.252Z,2.30
2023-02-25T09:17:33.209Z,2.23
2023-02-25T09:18:33.220Z,2.34
2023-02-25T09:19:33.225Z,2.39
2023-02-25T09:20:33.234Z,2.37
2023-02-25T09:21:33.243Z,2.34
2023-02-25T09:22:33.254Z,2.36
2023-02-25T09:23:33.269Z,2.40
2023-02-25T09:24:33.271Z,2.30
2023-02-25T09:25:33.286Z,2.36
2023-02-25T09:26:33.288Z,2.33
2023-02-25T09:27:33.296Z,2.30
2023-02-25T09:28:33.307Z,2.33
2023-02-25T09:29:33.317Z,2.37
2023-02-25T09:30:33.322Z,2.40
2023-02-25T09:31:33.454Z,2.44
2023-02-25T09:32:33.428Z,2.34
2023-02-25T09:33:33.366Z,2.43
2023-02-25T09:34:33.359Z,2.47
2023-02-25T09:35:33.367Z,2.46
2023-02-25T09:36:33.378Z,2.46
2023-02-25T09:37:33.385Z,2.52
2023-02-25T09:38:33.395Z,2.65
2023-02-25T09:39:33.401Z,2.52
2023-02-25T09:40:33.412Z,2.64
2023-02-25T09:41:33.426Z,2.68
2023-02-25T09:42:33.433Z,2.65
2023-02-25T09:43:33.439Z,2.68
2023-02-25T09:44:33.449Z,2.75
2023-02-25T09:45:33.493Z,2.73
2023-02-25T09:46:33.472Z,2.69
2023-02-25T09:47:33.518Z,2.73
2023-02-25T09:48:33.487Z,2.80
2023-02-25T09:49:33.499Z,2.90
2023-02-25T09:50:33.511Z,2.90
2023-02-25T09:51:33.514Z,2.85
2023-02-25T09:52:33.528Z,2.79
2023-02-25T09:53:33.533Z,2.80
2023-02-25T09:54:33.589Z,2.85
2023-02-25T09:55:33.553Z,2.82
2023-02-25T09:56:33.566Z,2.80
2023-02-25T09:57:33.574Z,2.79
2023-02-25T09:58:33.586Z,2.72
2023-02-25T09:59:33.591Z,2.77
2023-02-25T10:00:33.608Z,2.79
2023-02-25T10:01:33.611Z,2.76
2023-02-25T10:02:33.969Z,2.79
2023-02-25T10:03:33.658Z,2.76
2023-02-25T10:04:33.660Z,2.77
2023-02-25T10:05:33.657Z,2.73
2023-02-25T10:06:33.666Z,2.85
2023-02-25T10:07:33.673Z,2.87
2023-02-25T10:08:33.682Z,2.82
2023-02-25T10:09:33.702Z,2.77
2023-02-25T10:10:33.699Z,2.76
2023-02-25T10:11:33.709Z,2.68
2023-02-25T10:12:33.718Z,2.73
2023-02-25T10:13:33.726Z,2.65
2023-02-25T10:14:33.737Z,2.70
2023-02-25T10:15:33.744Z,2.64
2023-02-25T10:16:33.853Z,2.73
2023-02-25T10:17:33.765Z,2.72
2023-02-25T10:18:33.781Z,2.76
2023-02-25T10:19:33.782Z,2.75
2023-02-25T10:20:33.793Z,2.70
2023-02-25T10:21:33.808Z,2.69
2023-02-25T10:22:33.813Z,2.69
2023-02-25T10:23:33.819Z,2.61
2023-02-25T10:24:33.827Z,2.65
2023-02-25T10:25:33.841Z,2.47
2023-02-25T10:26:33.862Z,2.47
2023-02-25T10:27:33.884Z,2.51
2023-02-25T10:28:33.866Z,2.39
2023-02-25T10:29:33.874Z,2.26
2023-02-25T10:30:33.943Z,2.33
2023-02-25T10:31:33.962Z,2.21
2023-02-25T10:32:33.968Z,2.32
2023-02-25T10:33:33.921Z,2.23
2023-02-25T10:34:33.917Z,2.25
2023-02-25T10:35:33.925Z,2.22
2023-02-25T10:36:33.936Z,2.39
2023-02-25T10:37:33.949Z,2.23
2023-02-25T10:38:33.960Z,2.39
2023-02-25T10:39:33.967Z,2.32
2023-02-25T10:40:33.970Z,2.36
2023-02-25T10:41:33.988Z,2.34
2023-02-25T10:42:33.989Z,2.36
2023-02-25T10:43:33.996Z,2.37
2023-02-25T10:44:34.004Z,2.33
2023-02-25T10:45:34.013Z,2.34
2023-02-25T10:46:34.074Z,2.39
2023-02-25T10:47:34.030Z,2.39
2023-02-25T10:48:34.039Z,2.52
2023-02-25T10:49:34.049Z,2.40
2023-02-25T10:50:44.907Z,2.46
2023-02-25T10:51:34.072Z,2.46
2023-02-25T10:52:34.075Z,2.47
2023-02-25T10:53:34.087Z,2.52
2023-02-25T10:54:34.102Z,2.65
2023-02-25T10:55:34.098Z,2.52
2023-02-25T10:56:34.110Z,2.58
2023-02-25T10:57:34.118Z,2.59
2023-02-25T10:58:34.133Z,2.70
2023-02-25T10:59:34.138Z,2.73
2023-02-25T11:00:34.145Z,2.69
2023-02-25T11:01:34.235Z,2.72
2023-02-25T11:02:34.230Z,2.73
2023-02-25T11:03:34.183Z,2.75
2023-02-25T11:04:34.183Z,2.73
2023-02-25T11:05:34.189Z,2.68
2023-02-25T11:06:34.209Z,2.62
2023-02-25T11:07:34.278Z,2.61
2023-02-25T11:08:34.246Z,2.50
2023-02-25T11:09:34.233Z,2.58
2023-02-25T11:10:34.246Z,2.51
2023-02-25T11:11:34.248Z,2.33
2023-02-25T11:12:34.254Z,2.43
2023-02-25T11:13:34.267Z,2.23
2023-02-25T11:14:34.297Z,2.26
2023-02-25T11:15:44.068Z,2.25
2023-02-25T11:16:34.384Z,2.18
2023-02-25T11:17:34.301Z,2.23
2023-02-25T11:18:34.312Z,2.19
2023-02-25T11:19:34.318Z,2.23
2023-02-25T11:20:34.330Z,2.26
2023-02-25T11:21:34.339Z,2.30
2023-02-25T11:22:34.350Z,2.39
2023-02-25T11:23:34.355Z,2.34
2023-02-25T11:24:34.375Z,2.39
2023-02-25T11:25:34.382Z,2.46
2023-02-25T11:26:34.420Z,2.46
2023-02-25T11:27:35.252Z,2.50
2023-02-25T11:28:34.405Z,2.61
2023-02-25T11:29:34.418Z,2.58
2023-02-25T11:30:34.499Z,2.69
2023-02-25T11:31:34.503Z,2.65
2023-02-25T11:32:34.516Z,2.75
2023-02-25T11:33:34.448Z,2.80
2023-02-25T11:34:34.458Z,2.88
2023-02-25T11:35:34.465Z,2.83
2023-02-25T11:36:34.475Z,2.90
2023-02-25T11:38:34.492Z,2.94
2023-02-25T11:39:34.496Z,3.03
2023-02-25T11:40:34.506Z,2.94
2023-02-25T11:41:34.517Z,2.93
2023-02-25T11:42:34.528Z,2.93
2023-02-25T11:43:34.535Z,3.01
2023-02-25T11:44:34.544Z,3.01
2023-02-25T11:45:34.581Z,3.01
2023-02-25T11:46:34.621Z,3.01
2023-02-25T11:47:34.594Z,3.08
2023-02-25T11:48:34.587Z,3.11
2023-02-25T11:49:34.597Z,3.16
2023-02-25T11:50:34.604Z,3.12
2023-02-25T11:51:34.612Z,3.03
2023-02-25T11:52:34.623Z,3.18
2023-02-25T11:53:34.635Z,3.26
2023-02-25T11:54:34.643Z,3.24
2023-02-25T11:55:34.653Z,3.19
2023-02-25T11:56:34.661Z,3.16
2023-02-25T11:57:34.675Z,3.33
2023-02-25T11:58:34.681Z,3.21
2023-02-25T11:59:34.692Z,3.13
2023-02-25T12:00:34.701Z,3.06
2023-02-25T12:01:34.707Z,2.95
2023-02-25T12:02:34.749Z,2.94
2023-02-25T12:03:34.738Z,2.75
2023-02-25T12:04:34.739Z,2.75
2023-02-25T12:05:34.750Z,2.61
2023-02-25T12:06:34.763Z,2.57
2023-02-25T12:07:34.773Z,2.37
2023-02-25T12:08:34.784Z,2.36
2023-02-25T12:09:34.786Z,2.30
2023-02-25T12:10:34.818Z,2.39
2023-02-25T12:11:34.803Z,2.25
2023-02-25T12:12:34.814Z,2.26
2023-02-25T12:13:34.888Z,2.22
2023-02-25T12:14:34.834Z,2.28
2023-02-25T12:15:34.839Z,2.16
2023-02-25T12:16:34.861Z,2.22
2023-02-25T12:17:34.857Z,2.26
2023-02-25T12:18:34.868Z,2.28
2023-02-25T12:19:34.876Z,2.33
2023-02-25T12:20:34.884Z,2.36
2023-02-25T12:21:34.893Z,2.33
2023-02-25T12:22:34.906Z,2.36
2023-02-25T12:23:34.912Z,2.39
2023-02-25T12:24:34.921Z,2.44
2023-02-25T12:25:34.945Z,2.54
2023-02-25T12:26:34.938Z,2.58
2023-02-25T12:27:34.953Z,2.65
2023-02-25T12:28:34.965Z,2.62
2023-02-25T12:29:34.967Z,2.77
2023-02-25T12:30:34.989Z,2.73
2023-02-25T12:31:35.163Z,2.70
2023-02-25T12:32:35.022Z,2.73
2023-02-25T12:33:35.001Z,2.68
2023-02-25T12:34:35.018Z,2.72
2023-02-25T12:35:35.022Z,2.54
2023-02-25T12:36:35.035Z,2.47
2023-02-25T12:37:35.041Z,2.43
2023-02-25T12:38:35.056Z,2.26
2023-02-25T12:39:35.058Z,2.25
2023-02-25T12:40:35.069Z,2.08
2023-02-25T12:41:35.079Z,2.00
2023-02-25T12:42:35.098Z,2.00
2023-02-25T12:43:35.101Z,1.76
2023-02-25T12:44:35.102Z,1.58
2023-02-25T12:45:35.195Z,1.56
2023-02-25T12:46:35.125Z,1.49
2023-02-25T12:47:35.147Z,1.40
2023-02-25T12:48:35.179Z,1.46
2023-02-25T12:49:35.159Z,1.42
2023-02-25T12:50:35.156Z,1.38
2023-02-25T12:51:35.165Z,1.38
2023-02-25T12:52:35.175Z,1.40
2023-02-25T12:53:35.182Z,1.45
2023-02-25T12:54:35.189Z,1.45
2023-02-25T12:55:35.195Z,1.49
2023-02-25T12:56:35.202Z,1.49
2023-02-25T12:57:35.375Z,1.56
2023-02-25T12:58:35.222Z,1.57
2023-02-25T12:59:35.232Z,1.57
2023-02-25T13:00:35.237Z,1.61
2023-02-25T13:01:35.247Z,1.60
2023-02-25T13:02:35.268Z,1.64
2023-02-25T13:03:35.290Z,1.67
2023-02-25T13:04:35.311Z,1.64
2023-02-25T13:05:35.285Z,1.70
2023-02-25T13:06:35.298Z,1.67
2023-02-25T13:07:35.307Z,1.57
2023-02-25T13:08:35.306Z,1.66
2023-02-25T13:09:35.316Z,1.49
2023-02-25T13:10:35.332Z,1.49
2023-02-25T13:11:54.570Z,1.45
2023-02-25T13:12:35.341Z,1.36
2023-02-25T13:13:35.357Z,1.45
2023-02-25T13:14:35.372Z,1.42
2023-02-25T13:15:35.365Z,1.39
2023-02-25T13:16:35.420Z,1.45
2023-02-25T13:17:35.385Z,1.43
2023-02-25T13:18:35.404Z,1.53
2023-02-25T13:19:35.399Z,1.39